aviador You're here:

KGLS Decoded Metar

GALVESTON in TX, USA
Report Time2017-08-19 10:52:00
UTC Time2017-08-19 11:15:30
Flight Rules vfr VFR
Wind220° at 05 kt
W.Decomp.*RWY 18: 3.9 kt HW 3.1 kt RCW
RWY 14: 1.0 kt HW 4.9 kt RCW
W.Rank220° ranks 23
Current wind is below 220° avg. (7.2)
Visibility9999 m
Phenomena:N/A
Clouds:Scattered 019 Hf
Expected CloudBase > 800 ft AGL from Temp-Dew spread
CeilingNone
Temp28°C (ISA +13)
Dew Point26°C (89% RH)
Heat Index33.6°C
QNH1016 hPa
Density Alt1,860 ft
Elevation20 ft
Report Wrong Elevation
Raw Report
KGLS 191052Z 22005KT 10SM SCT019 28/26 A2999 RMK AO2 SLP156
T02830261=

Extra information for KGLS:More info

Metar Taf Metar & Taf Last 4 Metars F.Rules Stats Wind Profile Meteogram Temp Stats Airport Information Weather charts Add Link Nearby VenuesMetar ALERT Operation Metar Decoded Social comments

AIRNAV info for KGLS